createdAt,value
2023-02-19T00:03:26.099Z,77.23
2023-02-19T00:08:31.298Z,77.65
2023-02-19T00:13:38.027Z,77.40
2023-02-19T00:18:41.064Z,77.25
2023-02-19T00:23:43.614Z,77.09
2023-02-19T00:28:47.410Z,77.13
2023-02-19T00:33:52.542Z,76.48
2023-02-19T00:38:55.098Z,76.93
2023-02-19T00:43:59.897Z,76.42
2023-02-19T00:49:03.143Z,75.93
2023-02-19T00:54:06.464Z,75.89
2023-02-19T00:59:09.016Z,75.91
2023-02-19T01:04:11.915Z,75.32
2023-02-19T01:09:14.844Z,76.00
2023-02-19T01:14:17.299Z,75.52
2023-02-19T01:19:20.602Z,75.02
2023-02-19T01:24:23.031Z,75.27
2023-02-19T01:29:25.475Z,75.07
2023-02-19T01:34:30.395Z,74.47
2023-02-19T01:39:32.911Z,74.92
2023-02-19T01:44:35.199Z,74.29
2023-02-19T01:49:49.009Z,74.01
2023-02-19T01:54:53.476Z,74.05
2023-02-19T02:00:02.434Z,73.96
2023-02-19T02:05:50.918Z,73.49
2023-02-19T02:10:54.256Z,72.86
2023-02-19T02:16:02.606Z,72.78
2023-02-19T02:21:36.080Z,72.06
2023-02-19T02:26:51.235Z,71.89
2023-02-19T02:32:08.102Z,71.52
2023-02-19T02:37:12.510Z,71.74
2023-02-19T02:42:30.323Z,71.53
2023-02-19T02:47:48.225Z,72.01
2023-02-19T02:53:10.849Z,71.57
2023-02-19T02:58:15.529Z,71.96
2023-02-19T03:03:22.576Z,72.20
2023-02-19T03:08:31.552Z,71.71
2023-02-19T03:13:57.600Z,71.84
2023-02-19T03:19:19.483Z,71.75
2023-02-19T03:24:50.230Z,71.57
2023-02-19T03:29:57.378Z,71.53
2023-02-19T03:35:10.233Z,71.57
2023-02-19T03:40:14.142Z,71.15
2023-02-19T03:45:57.184Z,71.61
2023-02-19T03:51:06.969Z,71.21
2023-02-19T03:56:31.228Z,71.59
2023-02-19T04:01:46.319Z,72.00
2023-02-19T04:06:55.100Z,71.64
2023-02-19T04:11:58.894Z,71.58
2023-02-19T04:17:05.634Z,71.93
2023-02-19T04:22:10.005Z,71.38
2023-02-19T04:27:12.786Z,71.14
2023-02-19T04:32:15.426Z,70.99
2023-02-19T04:37:17.878Z,70.81
2023-02-19T04:42:20.191Z,70.10
2023-02-19T04:47:22.714Z,70.32
2023-02-19T04:52:25.097Z,70.01
2023-02-19T04:57:27.809Z,69.79
2023-02-19T05:02:30.181Z,69.74
2023-02-19T05:07:32.797Z,69.31
2023-02-19T05:12:35.199Z,68.93
2023-02-19T05:17:38.092Z,68.77
2023-02-19T05:22:40.432Z,68.70
2023-02-19T05:27:42.913Z,68.44
2023-02-19T05:32:45.303Z,67.84
2023-02-19T05:37:47.732Z,67.94
2023-02-19T05:42:50.160Z,67.86
2023-02-19T05:47:52.540Z,67.27
2023-02-19T05:52:54.904Z,67.36
2023-02-19T05:57:57.241Z,67.00
2023-02-19T06:02:59.772Z,66.69
2023-02-19T06:08:02.178Z,66.98
2023-02-19T06:13:04.600Z,66.54
2023-02-19T06:18:07.012Z,66.61
2023-02-19T06:23:09.440Z,66.57
2023-02-19T06:28:11.794Z,66.81
2023-02-19T06:33:15.686Z,66.82
2023-02-19T06:38:18.147Z,67.58
2023-02-19T06:43:20.533Z,66.90
2023-02-19T06:48:22.960Z,67.35
2023-02-19T06:53:25.861Z,66.09
2023-02-19T06:58:28.611Z,65.91
2023-02-19T07:03:31.121Z,66.54
2023-02-19T07:08:33.653Z,66.87
2023-02-19T07:13:36.074Z,65.68
2023-02-19T07:18:39.735Z,66.41
2023-02-19T07:23:43.168Z,66.61
2023-02-19T07:28:47.054Z,65.64
2023-02-19T07:33:50.406Z,65.24
2023-02-19T07:38:57.328Z,65.14
2023-02-19T07:43:59.787Z,65.12
2023-02-19T07:49:02.186Z,63.74
2023-02-19T07:54:04.652Z,63.40
2023-02-19T07:59:07.058Z,62.97
2023-02-19T08:04:10.738Z,62.53
2023-02-19T08:09:13.126Z,62.53
2023-02-19T08:14:15.605Z,62.74
2023-02-19T08:19:18.113Z,62.05
2023-02-19T08:24:20.527Z,62.26
2023-02-19T08:29:23.083Z,62.12
2023-02-19T08:34:25.558Z,61.83
2023-02-19T08:39:28.024Z,61.32
2023-02-19T08:44:30.401Z,61.29
2023-02-19T08:49:32.824Z,61.32
2023-02-19T08:54:37.226Z,61.21
2023-02-19T08:59:39.705Z,60.38
2023-02-19T09:04:42.143Z,60.52
2023-02-19T09:09:44.612Z,60.34
2023-02-19T09:14:47.260Z,60.03
2023-02-19T09:19:50.885Z,60.73
2023-02-19T09:24:53.506Z,60.06
2023-02-19T09:29:55.998Z,60.21
2023-02-19T09:34:58.473Z,60.46
2023-02-19T09:40:00.895Z,59.41
2023-02-19T09:45:05.402Z,59.64
2023-02-19T09:50:10.376Z,60.19
2023-02-19T09:55:36.631Z,59.48
2023-02-19T10:00:40.274Z,59.19
2023-02-19T10:05:43.278Z,58.92
2023-02-19T10:10:45.821Z,59.41
2023-02-19T10:15:52.195Z,59.94
2023-02-19T10:20:56.288Z,59.35
2023-02-19T10:26:00.474Z,59.14
2023-02-19T10:31:07.700Z,58.86
2023-02-19T10:36:41.966Z,57.57
2023-02-19T10:41:44.551Z,54.56
2023-02-19T10:46:50.680Z,54.45
2023-02-19T10:51:55.841Z,55.33
2023-02-19T10:57:21.392Z,55.57
2023-02-19T11:02:24.503Z,55.33
2023-02-19T11:07:26.918Z,55.26
2023-02-19T11:12:33.764Z,56.09
2023-02-19T11:17:36.830Z,56.69
2023-02-19T11:22:42.339Z,57.30
2023-02-19T11:28:05.151Z,57.60
2023-02-19T11:33:16.734Z,58.15
2023-02-19T11:38:21.102Z,57.94
2023-02-19T11:43:50.126Z,58.57
2023-02-19T11:48:56.428Z,58.53
2023-02-19T11:54:05.168Z,59.63
2023-02-19T11:59:36.662Z,59.66
2023-02-19T12:04:48.016Z,59.11
2023-02-19T12:10:28.898Z,59.61
2023-02-19T12:15:50.112Z,60.30
2023-02-19T12:21:26.317Z,60.33
2023-02-19T12:26:56.590Z,59.77
2023-02-19T12:32:27.363Z,60.84
2023-02-19T12:37:45.525Z,60.29
2023-02-19T12:43:20.586Z,60.87
2023-02-19T12:48:53.701Z,61.13
2023-02-19T12:54:06.502Z,60.73
2023-02-19T12:59:36.986Z,60.79
2023-02-19T13:04:42.261Z,60.80
2023-02-19T13:09:52.273Z,60.33
2023-02-19T13:15:00.156Z,60.54
2023-02-19T13:20:14.344Z,60.93
2023-02-19T13:25:19.520Z,60.69
2023-02-19T13:30:21.817Z,61.25
2023-02-19T13:35:42.190Z,61.82
2023-02-19T13:40:56.085Z,61.28
2023-02-19T13:46:03.006Z,61.99
2023-02-19T13:51:26.452Z,61.42
2023-02-19T13:56:31.869Z,61.71
2023-02-19T14:01:56.195Z,61.89
2023-02-19T14:07:04.981Z,62.23
2023-02-19T14:12:15.455Z,62.54
2023-02-19T14:17:29.059Z,63.17
2023-02-19T14:22:51.603Z,63.41
2023-02-19T14:28:16.069Z,63.55
2023-02-19T14:33:22.785Z,64.04
2023-02-19T14:38:27.731Z,64.08
2023-02-19T14:43:31.665Z,64.08
2023-02-19T14:48:39.983Z,64.60
2023-02-19T14:53:45.172Z,64.85
2023-02-19T14:59:05.782Z,65.80
2023-02-19T15:04:25.945Z,65.83
2023-02-19T15:09:35.717Z,65.23
2023-02-19T15:14:40.466Z,66.01
2023-02-19T15:19:44.375Z,66.01
2023-02-19T15:24:48.673Z,66.27
2023-02-19T15:29:53.857Z,66.38
2023-02-19T15:34:59.165Z,66.21
2023-02-19T15:40:07.897Z,65.80
2023-02-19T15:45:16.070Z,66.37
2023-02-19T15:50:31.893Z,66.94
2023-02-19T15:55:40.283Z,66.98
2023-02-19T16:00:52.129Z,67.11
2023-02-19T16:06:11.672Z,67.53
2023-02-19T16:11:23.373Z,67.89
2023-02-19T16:16:31.524Z,67.89
2023-02-19T16:21:34.308Z,68.31
2023-02-19T16:26:44.759Z,68.52
2023-02-19T16:31:50.988Z,68.64
2023-02-19T16:36:53.496Z,69.05
2023-02-19T16:42:12.862Z,69.40
2023-02-19T16:47:21.045Z,69.82
2023-02-19T16:52:23.710Z,69.92
2023-02-19T16:57:26.183Z,69.87
2023-02-19T17:02:28.622Z,70.31
2023-02-19T17:07:31.052Z,70.35
2023-02-19T17:12:33.494Z,70.68
2023-02-19T17:17:36.156Z,71.09
2023-02-19T17:22:38.967Z,71.20
2023-02-19T17:27:41.653Z,71.54
2023-02-19T17:32:44.759Z,70.94
2023-02-19T17:37:47.272Z,71.53
2023-02-19T17:42:50.291Z,71.42
2023-02-19T17:47:53.417Z,71.96
2023-02-19T17:52:56.005Z,71.49
2023-02-19T17:57:58.454Z,71.34
2023-02-19T18:03:01.030Z,71.40
2023-02-19T18:08:03.768Z,71.53
2023-02-19T18:13:06.399Z,71.08
2023-02-19T18:18:10.124Z,71.17
2023-02-19T18:23:12.615Z,71.24
2023-02-19T18:28:15.696Z,70.87
2023-02-19T18:33:18.288Z,71.06
2023-02-19T18:38:21.251Z,70.76
2023-02-19T18:43:23.851Z,70.90
2023-02-19T18:48:26.251Z,71.17
2023-02-19T18:53:30.421Z,71.38
2023-02-19T18:58:33.715Z,71.34
2023-02-19T19:03:36.180Z,71.79
2023-02-19T19:08:38.681Z,71.25
2023-02-19T19:13:41.253Z,71.31
2023-02-19T19:18:43.624Z,71.48
2023-02-19T19:23:46.582Z,71.65
2023-02-19T19:28:48.977Z,71.85
2023-02-19T19:33:52.200Z,71.51
2023-02-19T19:38:54.663Z,71.16
2023-02-19T19:43:57.566Z,71.66
2023-02-19T19:49:00.117Z,71.71
2023-02-19T19:54:04.447Z,71.85
2023-02-19T19:59:06.899Z,72.09
2023-02-19T20:04:09.269Z,71.31
2023-02-19T20:09:11.973Z,71.56
2023-02-19T20:14:15.264Z,71.66
2023-02-19T20:19:19.861Z,71.68
2023-02-19T20:24:29.090Z,71.99
2023-02-19T20:29:33.730Z,71.86
2023-02-19T20:34:36.780Z,72.54
2023-02-19T20:39:39.295Z,71.86
2023-02-19T20:44:42.930Z,72.06
2023-02-19T20:49:46.860Z,72.58
2023-02-19T20:54:49.271Z,72.25
2023-02-19T20:59:51.770Z,72.94
2023-02-19T21:04:54.239Z,72.35
2023-02-19T21:09:56.674Z,72.24
2023-02-19T21:14:59.076Z,72.69
2023-02-19T21:20:01.482Z,72.66
2023-02-19T21:25:05.610Z,71.87
2023-02-19T21:30:08.616Z,72.09
2023-02-19T21:35:11.272Z,71.76
2023-02-19T21:40:13.964Z,71.78
2023-02-19T21:45:16.479Z,72.11
2023-02-19T21:50:20.300Z,71.60
2023-02-19T21:55:22.661Z,71.93
2023-02-19T22:00:25.189Z,71.41
2023-02-19T22:05:27.618Z,71.87
2023-02-19T22:10:30.301Z,71.74
2023-02-19T22:15:32.645Z,71.30
2023-02-19T22:20:37.520Z,70.79
2023-02-19T22:25:39.909Z,71.40
2023-02-19T22:30:43.209Z,71.33
2023-02-19T22:35:45.602Z,71.31
2023-02-19T22:40:47.975Z,71.12
2023-02-19T22:45:50.386Z,71.72
2023-02-19T22:50:52.965Z,71.54
2023-02-19T22:55:55.466Z,71.14
2023-02-19T23:00:58.003Z,71.39
2023-02-19T23:06:04.050Z,70.75
2023-02-19T23:11:06.477Z,70.21
2023-02-19T23:16:08.909Z,70.16
2023-02-19T23:21:11.568Z,70.43
2023-02-19T23:26:16.089Z,69.81
2023-02-19T23:31:19.081Z,69.60
2023-02-19T23:36:24.088Z,69.58
2023-02-19T23:41:26.694Z,69.83
2023-02-19T23:46:29.341Z,70.36
2023-02-19T23:51:31.778Z,70.30
2023-02-19T23:56:34.834Z,69.94
